Gurn Spring, New York
Current Conditions -  °F | °C
As of 7:53 AM on Thursday 23 Oct 2014 (Local Time) from KGFL Reporting Station
Light Rain Light Rain  
Wind Chill:   Ceiling: 4100
Heat Index:   Visibility: 10mi
Dew Point:   Wind: 10mph
Humidity: 83%   Direction: 360°N
Pressure: 29.87"   Gusts: NA
Location:  43.1979°N, 73.6839°W
Report Text: KGFL 231153Z AUTO 36009KT 10SM -RA SCT032 BKN041 OVC090 08/06 A2987 RMK AO2 SLP120 P0000 60015 70016 T00830056 10111 20078 58009
Loading
Personal Weather Stations






























Interactive Weather Map
Tropical Storm Tracking
New forecast layout! Learn more

10-Day Weather Forecast

Advertisements
Track Severe Weather on mobile